»·PEaware :: N149CD KHND-KHII

N149CD :: KHND-KHII

FLIGHT INFORMATION

Flight Status: Arrived
Operator: Privately registered:
United States
More flights under this callsign
Pilot: Nathan E. (30132)
Aircraft: CESSNA 172 SKYHAWK
(C172)
More flights by this aircraft type
Origin: KHND Henderson
United States
Destination: KHII Lake Havasu City
United States
More flights between these airports :: More routes between these airports
Route: LYNSY V237 EED
File this flight plan on PilotEdge
Remarks:
Altitude:
(Current/Filed)
9,000ft
Speed:
(Current/Filed)
110kts
Departed: 19-Oct-20 02:09 PM
Arrived: 19-Oct-20 03:03 PM
Distance/Time
Traveled:
92nm/0:54
Distance/Time
To Go:
Arrived

Flight Plot

Page will automatically refresh every two minutes.

Flight plan parsing failed; only flown route is shown


Map Options




Map Legend


Flown Route
Filed Route
Departure Airport
Arrival Airport
Navaid (VOR, NDB)
Fix

Horizontal Profiles

Position Reports

Time Latitude Longitude Heading Altitude Ground
Speed
19-Oct-20 13:47 35.975112 -115.138212 0 2418ft 0kts
19-Oct-20 13:48 35.975112 -115.138212 0 2418ft 0kts
19-Oct-20 13:49 35.975113 -115.138212 0 2418ft 0kts
19-Oct-20 13:50 35.975113 -115.138212 0 2418ft 0kts
19-Oct-20 13:51 35.975113 -115.138212 0 2418ft 0kts
19-Oct-20 13:52 35.975113 -115.138212 0 2418ft 0kts
19-Oct-20 13:53 35.975113 -115.138212 0 2418ft 0kts
19-Oct-20 13:54 35.975113 -115.138212 0 2418ft 0kts
19-Oct-20 13:55 35.975113 -115.138212 0 2418ft 0kts
19-Oct-20 13:56 35.975113 -115.138212 0 2418ft 0kts
19-Oct-20 13:57 35.975113 -115.138212 0 2418ft 0kts
19-Oct-20 13:58 35.975113 -115.138212 0 2418ft 0kts
19-Oct-20 13:59 35.975113 -115.138212 0 2418ft 0kts
19-Oct-20 14:00 35.975113 -115.138212 0 2418ft 0kts
19-Oct-20 14:01 35.975113 -115.138212 0 2418ft 0kts
19-Oct-20 14:02 35.974726 -115.136926 181 2422ft 10kts
19-Oct-20 14:03 35.971236 -115.136970 181 2439ft 13kts
19-Oct-20 14:04 35.966417 -115.137030 180 2457ft 19kts
19-Oct-20 14:05 35.962954 -115.136963 92 2469ft 0kts
19-Oct-20 14:06 35.962954 -115.136964 92 2469ft 0kts
19-Oct-20 14:07 35.963111 -115.136339 88 2472ft 6kts
19-Oct-20 14:08 35.973980 -115.135369 1 2546ft 80kts
19-Oct-20 14:09 35.995867 -115.134200 23 3219ft 80kts
19-Oct-20 14:10 35.989984 -115.117258 188 3911ft 82kts
19-Oct-20 14:11 35.967234 -115.122640 191 4575ft 84kts
19-Oct-20 14:12 35.944085 -115.128147 191 5210ft 85kts
19-Oct-20 14:13 35.920645 -115.133579 191 5813ft 86kts
19-Oct-20 14:14 35.896846 -115.138492 172 6386ft 87kts
19-Oct-20 14:15 35.881464 -115.115911 122 6919ft 89kts
19-Oct-20 14:16 35.866964 -115.090750 123 7429ft 90kts
19-Oct-20 14:17 35.851822 -115.065378 124 7911ft 92kts
19-Oct-20 14:18 35.836280 -115.039815 124 8364ft 94kts
19-Oct-20 14:19 35.820350 -115.013848 124 8791ft 96kts
19-Oct-20 14:20 35.803047 -114.985672 124 8992ft 117kts
19-Oct-20 14:21 35.782278 -114.952031 125 8981ft 125kts
19-Oct-20 14:22 35.761316 -114.918101 124 8980ft 123kts
19-Oct-20 14:23 35.740557 -114.884463 124 8980ft 123kts
19-Oct-20 14:24 35.719729 -114.850756 124 8980ft 123kts
19-Oct-20 14:25 35.698969 -114.817221 125 8981ft 123kts
19-Oct-20 14:26 35.678058 -114.783509 124 8981ft 123kts
19-Oct-20 14:27 35.653317 -114.755854 162 8974ft 124kts
19-Oct-20 14:28 35.621177 -114.743718 166 9098ft 117kts
19-Oct-20 14:29 35.588148 -114.732987 167 9086ft 124kts
19-Oct-20 14:30 35.554534 -114.722300 167 9071ft 124kts
19-Oct-20 14:31 35.520885 -114.711633 167 9057ft 124kts
19-Oct-20 14:32 35.487458 -114.701037 167 9055ft 124kts
19-Oct-20 14:33 35.453953 -114.690389 167 9055ft 124kts
19-Oct-20 14:34 35.420376 -114.679734 167 9055ft 124kts
19-Oct-20 14:35 35.386957 -114.669147 167 9055ft 124kts
19-Oct-20 14:36 35.353287 -114.658479 167 9055ft 124kts
19-Oct-20 14:37 35.319728 -114.647859 167 9055ft 124kts
19-Oct-20 14:38 35.286346 -114.637306 167 9055ft 124kts
19-Oct-20 14:39 35.252741 -114.626692 167 9055ft 124kts
19-Oct-20 14:40 35.219306 -114.616141 167 9056ft 124kts
19-Oct-20 14:41 35.185698 -114.605542 167 9056ft 124kts
19-Oct-20 14:42 35.152196 -114.595000 167 9056ft 124kts
19-Oct-20 14:43 35.118591 -114.584267 165 9055ft 124kts
19-Oct-20 14:44 35.085158 -114.573490 165 9055ft 124kts
19-Oct-20 14:45 35.051681 -114.563009 166 8790ft 125kts
19-Oct-20 14:46 35.017934 -114.552766 167 8301ft 124kts
19-Oct-20 14:47 34.984520 -114.542389 166 7809ft 122kts
19-Oct-20 14:48 34.951607 -114.532057 165 7315ft 121kts
19-Oct-20 14:49 34.919021 -114.521799 165 6820ft 120kts
19-Oct-20 14:50 34.886610 -114.511711 165 6323ft 120kts
19-Oct-20 14:51 34.854246 -114.501596 165 6108ft 119kts
19-Oct-20 14:52 34.822173 -114.491573 165 6108ft 119kts
19-Oct-20 14:53 34.790180 -114.481595 165 6109ft 119kts
19-Oct-20 14:54 34.757967 -114.473982 176 5681ft 122kts
19-Oct-20 14:55 34.723562 -114.471577 176 4682ft 123kts
19-Oct-20 14:56 34.693581 -114.455112 145 3772ft 116kts
19-Oct-20 14:57 34.665440 -114.432668 146 3002ft 120kts
19-Oct-20 14:58 34.638996 -114.411578 147 2298ft 112kts
19-Oct-20 14:59 34.614275 -114.389594 143 1677ft 100kts
19-Oct-20 15:00 34.593657 -114.374266 153 1130ft 74kts
19-Oct-20 15:01 34.577498 -114.362823 148 756ft 44kts
19-Oct-20 15:02 34.575495 -114.362689 327 751ft 12kts
19-Oct-20 15:03 34.577388 -114.364565 330 746ft 0kts
19-Oct-20 15:04 34.577388 -114.364565 330 746ft 0kts

Navigation Log

Ident Type
Flight plan parsing failed, navigation log unavailable